Time;durP1;ratioP1;P1;durP2;ratioP2;P2;SDS_P1;SDS_P2;PMS_P1;PMS_P2;Temp;Humidity;BMP_temperature;BMP_pressure;BME280_temperature;BME280_humidity;BME280_pressure;Samples;Min_cycle;Max_cycle;Signal;HPM_P1;HPM_P2
2024/01/24 00:01:28;;;;;;;;;;;;;;;2.36;71.72;100954.75;4416574;32;33986;-86
2024/01/24 00:03:59;;;;;;;;;;;;;;;2.01;73.09;100950.78;4419519;32;33679;-87
2024/01/24 00:06:32;;;;;;;;;;;;;;;2.36;72.18;100941.94;4414603;32;33663;-87
2024/01/24 00:09:01;;;;;;;;;;;;;;;2.26;72.66;100940.72;4412641;32;34441;-88
2024/01/24 00:11:30;;;;;;;;;;;;;;;2.53;71.25;100958.00;4412406;32;32755;-87
2024/01/24 00:13:59;;;;;;;;;;;;;;;2.49;71.01;100971.47;4419773;32;33322;-87
2024/01/24 00:16:34;;;;;;;;;;;;;;;2.26;71.53;100965.44;4420213;32;34539;-87
2024/01/24 00:19:04;;;;;;;;;;;;;;;2.23;72.23;100973.00;4414958;32;34389;-87
2024/01/24 00:21:35;;;;;;;;;;;;;;;2.45;70.86;100962.81;4414704;32;33168;-87
2024/01/24 00:24:04;;;;;;;;;;;;;;;2.40;70.60;100961.75;4416836;32;33884;-87
2024/01/24 00:26:35;;;;;;;;;;;;;;;2.33;70.54;100959.75;4419554;32;32752;-88
2024/01/24 00:29:04;;;;;;;;;;;;;;;2.32;69.83;100961.44;4415365;32;33547;-87
2024/01/24 00:31:39;;;;;;;;;;;;;;;1.95;71.62;100964.16;4416400;32;33237;-87
2024/01/24 00:34:09;;;;;;;;;;;;;;;2.13;70.66;100957.25;4418307;32;32490;-87
2024/01/24 00:36:43;;;;;;;;;;;;;;;2.05;70.52;100960.31;4409500;32;33968;-86
2024/01/24 00:39:14;;;;;;;;;;;;;;;1.76;71.53;100949.72;4419972;32;34906;-88
2024/01/24 00:41:46;;;;;;;;;;;;;;;2.01;70.85;100943.97;4413884;32;35048;-87
2024/01/24 00:44:15;;;;;;;;;;;;;;;1.91;71.26;100940.16;4402181;32;32986;-87
2024/01/24 00:46:51;;;;;;;;;;;;;;;1.95;71.30;100936.00;4414796;32;33891;-87
2024/01/24 00:49:29;;;;;;;;;;;;;;;1.92;71.29;100949.56;4414924;32;33498;-87
2024/01/24 00:51:59;;;;;;;;;;;;;;;1.96;71.06;100958.25;4191323;32;7457149;-87
2024/01/24 00:54:38;;;;;;;;;;;;;;;1.96;71.13;100952.25;4415622;32;34468;-87
2024/01/24 00:57:10;;;;;;;;;;;;;;;2.04;70.71;100962.00;4406099;32;35260;-88
2024/01/24 00:59:39;;;;;;;;;;;;;;;1.86;71.62;100953.53;4400621;32;33959;-88
2024/01/24 01:02:09;;;;;;;;;;;;;;;1.91;71.67;100959.75;4403662;32;32289;-88
2024/01/24 01:04:39;;;;;;;;;;;;;;;1.95;71.48;100956.47;4404693;32;34892;-88
2024/01/24 01:07:09;;;;;;;;;;;;;;;1.77;72.52;100954.03;4399802;32;34049;-88
2024/01/24 01:09:38;;;;;;;;;;;;;;;1.67;72.16;100937.44;4400265;32;34499;-87
2024/01/24 01:12:10;;;;;;;;;;;;;;;1.84;72.34;100935.59;4395523;32;33063;-87
2024/01/24 01:14:39;;;;;;;;;;;;;;;1.62;72.52;100925.22;4404980;32;34921;-88
2024/01/24 01:19:43;;;;;;;;;;;;;;;1.90;72.14;100924.72;4400224;32;34352;-87
2024/01/24 01:22:12;;;;;;;;;;;;;;;1.88;71.93;100916.09;4400399;32;32617;-88
2024/01/24 01:24:44;;;;;;;;;;;;;;;2.05;70.94;100898.88;4401785;32;34872;-88
2024/01/24 01:27:13;;;;;;;;;;;;;;;2.07;70.54;100889.56;4405116;32;34571;-88
2024/01/24 01:29:43;;;;;;;;;;;;;;;2.04;71.23;100884.34;4400233;32;34264;-89
2024/01/24 01:32:15;;;;;;;;;;;;;;;2.16;70.60;100877.16;4400187;32;34026;-88
2024/01/24 01:34:45;;;;;;;;;;;;;;;2.34;69.68;100872.75;4399948;32;33981;-89
2024/01/24 01:37:15;;;;;;;;;;;;;;;2.24;70.20;100882.56;4404350;32;34003;-89
2024/01/24 01:39:46;;;;;;;;;;;;;;;2.26;69.99;100886.06;4399293;32;34503;-88
2024/01/24 01:42:16;;;;;;;;;;;;;;;2.28;70.01;100890.44;4399220;32;32909;-89
2024/01/24 01:44:49;;;;;;;;;;;;;;;2.16;70.62;100881.41;4400440;32;33435;-89
2024/01/24 01:47:18;;;;;;;;;;;;;;;2.20;70.45;100870.44;4400211;32;33780;-88
2024/01/24 01:49:49;;;;;;;;;;;;;;;2.03;70.89;100863.00;4404251;32;34350;-88
2024/01/24 01:52:26;;;;;;;;;;;;;;;1.97;71.50;100849.94;4398954;32;32686;-89
2024/01/24 01:54:55;;;;;;;;;;;;;;;2.09;71.60;100853.00;4403387;32;34223;-87
2024/01/24 01:57:25;;;;;;;;;;;;;;;2.11;71.64;100841.13;4404856;32;33382;-88
2024/01/24 01:59:54;;;;;;;;;;;;;;;2.00;71.80;100849.19;4409884;32;33780;-88
2024/01/24 02:02:23;;;;;;;;;;;;;;;1.64;73.31;100840.09;4390408;32;33808;-89
2024/01/24 02:04:57;;;;;;;;;;;;;;;1.73;73.30;100849.81;4406430;32;33920;-88
2024/01/24 02:07:29;;;;;;;;;;;;;;;1.76;73.03;100846.50;4401948;32;33604;-88
2024/01/24 02:09:58;;;;;;;;;;;;;;;1.90;72.55;100855.62;4389419;32;33627;-89
2024/01/24 02:12:27;;;;;;;;;;;;;;;1.94;72.33;100854.94;4406146;32;33976;-89
2024/01/24 02:14:56;;;;;;;;;;;;;;;1.96;72.34;100850.78;4407515;32;33712;-89
2024/01/24 02:17:25;;;;;;;;;;;;;;;1.99;72.02;100848.31;4402311;32;34716;-88
2024/01/24 02:19:59;;;;;;;;;;;;;;;1.96;71.75;100843.09;4401918;32;34163;-88
2024/01/24 02:22:29;;;;;;;;;;;;;;;1.98;71.72;100835.47;4406236;32;33208;-88
2024/01/24 02:25:02;;;;;;;;;;;;;;;2.08;71.07;100841.00;4413995;32;33702;-88
2024/01/24 02:27:32;;;;;;;;;;;;;;;1.93;71.41;100835.25;4401281;32;33283;-89
2024/01/24 02:30:01;;;;;;;;;;;;;;;1.97;71.18;100832.03;4399315;32;33616;-89
2024/01/24 02:32:30;;;;;;;;;;;;;;;2.06;71.10;100831.53;4403587;32;32834;-89
2024/01/24 02:34:59;;;;;;;;;;;;;;;1.97;71.29;100824.34;4405467;32;33464;-89
2024/01/24 02:37:28;;;;;;;;;;;;;;;1.85;72.00;100828.97;4400805;32;34539;-89
2024/01/24 02:39:59;;;;;;;;;;;;;;;1.83;72.20;100817.81;4401087;32;33793;-90
2024/01/24 02:42:29;;;;;;;;;;;;;;;2.16;70.94;100810.59;4403896;32;32698;-90
2024/01/24 02:45:01;;;;;;;;;;;;;;;1.97;71.53;100806.44;4404306;32;32077;-89
2024/01/24 02:47:30;;;;;;;;;;;;;;;2.05;71.37;100814.41;4407321;32;34328;-91
2024/01/24 02:50:03;;;;;;;;;;;;;;;1.94;71.97;100811.44;4402326;32;33896;-89
2024/01/24 02:52:33;;;;;;;;;;;;;;;1.90;72.62;100810.44;4402732;32;33432;-90
2024/01/24 02:55:13;;;;;;;;;;;;;;;2.08;71.80;100812.00;4403060;32;34152;-89
2024/01/24 02:57:47;;;;;;;;;;;;;;;2.15;71.53;100811.41;4422438;32;34075;-91
2024/01/24 03:00:40;;;;;;;;;;;;;;;2.03;71.83;100809.25;4421551;32;33709;-90
2024/01/24 03:03:14;;;;;;;;;;;;;;;2.30;70.14;100816.25;4400390;32;33580;-90
2024/01/24 03:05:43;;;;;;;;;;;;;;;2.02;70.31;100809.19;4403381;32;33749;-90
2024/01/24 03:08:12;;;;;;;;;;;;;;;2.07;69.58;100797.44;4402045;32;34219;-89
2024/01/24 03:10:41;;;;;;;;;;;;;;;1.94;70.03;100788.41;4403315;32;34244;-91
2024/01/24 03:13:19;;;;;;;;;;;;;;;1.90;69.89;100784.84;4407318;32;33619;-90
2024/01/24 03:15:57;;;;;;;;;;;;;;;1.72;70.25;100779.03;4402194;32;33855;-90
2024/01/24 03:18:26;;;;;;;;;;;;;;;1.97;69.52;100773.16;4402539;32;34553;-89
2024/01/24 03:21:07;;;;;;;;;;;;;;;1.84;69.47;100769.25;4402116;32;33563;-90
2024/01/24 03:23:45;;;;;;;;;;;;;;;1.80;70.07;100758.84;4404887;32;33179;-91
2024/01/24 03:26:22;;;;;;;;;;;;;;;1.75;70.32;100753.53;4407054;32;33417;-91
2024/01/24 03:28:53;;;;;;;;;;;;;;;1.85;70.15;100750.53;4403902;32;33737;-90
2024/01/24 03:31:24;;;;;;;;;;;;;;;1.80;70.67;100739.25;4401840;32;34269;-89
2024/01/24 03:33:53;;;;;;;;;;;;;;;1.88;70.52;100735.28;4405403;32;33526;-91
2024/01/24 03:36:24;;;;;;;;;;;;;;;2.06;70.27;100727.47;4404639;32;33559;-91
2024/01/24 03:38:53;;;;;;;;;;;;;;;1.98;70.71;100720.28;4420696;32;34670;-89
2024/01/24 03:41:22;;;;;;;;;;;;;;;1.82;71.29;100719.72;4409623;32;34826;-90
2024/01/24 03:43:51;;;;;;;;;;;;;;;1.94;71.37;100713.34;4403448;32;33878;-90
2024/01/24 03:46:23;;;;;;;;;;;;;;;2.30;70.46;100713.84;4412694;32;33830;-90
2024/01/24 03:48:52;;;;;;;;;;;;;;;2.48;70.46;100718.72;4406973;32;34070;-91
2024/01/24 03:51:22;;;;;;;;;;;;;;;2.31;71.29;100720.69;4407750;32;34212;-90
2024/01/24 03:53:51;;;;;;;;;;;;;;;2.41;71.08;100727.00;4402344;32;33169;-90
2024/01/24 03:56:26;;;;;;;;;;;;;;;2.33;71.65;100712.25;4409606;32;33517;-90
2024/01/24 03:58:55;;;;;;;;;;;;;;;2.26;72.23;100719.66;4403598;32;34652;-90
2024/01/24 04:01:27;;;;;;;;;;;;;;;1.99;73.78;100725.47;4406576;32;33942;-91
2024/01/24 04:03:56;;;;;;;;;;;;;;;2.53;72.31;100720.62;4403474;32;32903;-91
2024/01/24 04:06:27;;;;;;;;;;;;;;;2.64;72.04;100723.59;4401980;32;33771;-90
2024/01/24 04:08:55;;;;;;;;;;;;;;;2.51;73.38;100719.72;4402101;32;33960;-91
2024/01/24 04:11:26;;;;;;;;;;;;;;;2.78;72.11;100717.25;4406140;32;33902;-91
2024/01/24 04:13:58;;;;;;;;;;;;;;;3.09;70.23;100710.59;4403074;32;33975;-90
2024/01/24 04:16:36;;;;;;;;;;;;;;;2.97;70.68;100718.78;4403935;32;33978;-92
2024/01/24 04:19:04;;;;;;;;;;;;;;;3.14;69.78;100727.03;4400406;32;34227;-91
2024/01/24 04:21:40;;;;;;;;;;;;;;;3.12;69.82;100726.09;4401569;32;34520;-90
2024/01/24 04:24:15;;;;;;;;;;;;;;;2.71;71.84;100722.13;4406847;32;34148;-89
2024/01/24 04:26:44;;;;;;;;;;;;;;;2.91;71.52;100715.13;4404249;32;34083;-91
2024/01/24 04:29:14;;;;;;;;;;;;;;;2.83;72.24;100702.06;4401398;32;34265;-90
2024/01/24 04:31:44;;;;;;;;;;;;;;;3.01;71.20;100709.47;4401746;32;34452;-90
2024/01/24 04:34:16;;;;;;;;;;;;;;;3.07;71.21;100706.25;4406447;32;34094;-90
2024/01/24 04:36:46;;;;;;;;;;;;;;;3.25;70.68;100716.25;4405347;32;33928;-90
2024/01/24 04:39:15;;;;;;;;;;;;;;;3.08;71.26;100713.12;4398438;32;33747;-89
2024/01/24 04:41:47;;;;;;;;;;;;;;;3.20;71.34;100709.28;4400798;32;33885;-91
2024/01/24 04:44:21;;;;;;;;;;;;;;;3.35;70.32;100710.59;4400573;32;33415;-89
2024/01/24 04:46:51;;;;;;;;;;;;;;;3.19;71.26;100715.22;4405581;32;33295;-90
2024/01/24 04:49:20;;;;;;;;;;;;;;;3.26;70.90;100693.19;4401131;32;33660;-90
2024/01/24 04:52:05;;;;;;;;;;;;;;;3.32;70.92;100697.69;4400877;32;34561;-90
2024/01/24 04:54:35;;;;;;;;;;;;;;;3.62;69.49;100693.53;4401329;32;33273;-91
2024/01/24 04:57:07;;;;;;;;;;;;;;;3.63;69.36;100696.97;4408722;32;33867;-90
2024/01/24 04:59:38;;;;;;;;;;;;;;;3.38;70.95;100691.06;4409907;32;34617;-90
2024/01/24 05:02:19;;;;;;;;;;;;;;;3.35;70.81;100688.37;4523489;26;33740;-90
2024/01/24 05:04:49;;;;;;;;;;;;;;;3.30;71.17;100683.94;4417240;32;34166;-89
2024/01/24 05:07:18;;;;;;;;;;;;;;;3.52;70.24;100686.34;4452322;26;34740;-89
2024/01/24 05:09:47;;;;;;;;;;;;;;;3.61;70.21;100686.62;4436466;32;34791;-89
2024/01/24 05:12:20;;;;;;;;;;;;;;;3.52;70.63;100680.34;4431682;32;34697;-90
2024/01/24 05:14:49;;;;;;;;;;;;;;;3.52;71.06;100672.66;4432300;32;32879;-89
2024/01/24 05:17:29;;;;;;;;;;;;;;;3.73;69.76;100660.47;4434422;32;34530;-90
2024/01/24 05:19:58;;;;;;;;;;;;;;;3.79;69.83;100654.66;4431593;32;34719;-90
2024/01/24 05:22:27;;;;;;;;;;;;;;;3.77;70.66;100649.50;4436434;32;33470;-90
2024/01/24 05:27:48;;;;;;;;;;;;;;;3.83;70.94;100662.50;4438859;26;34591;-88
2024/01/24 05:30:18;;;;;;;;;;;;;;;4.04;69.89;100659.69;4419327;32;34571;-88
2024/01/24 05:33:04;;;;;;;;;;;;;;;4.05;69.97;100663.13;4419214;32;34741;-89
2024/01/24 05:35:36;;;;;;;;;;;;;;;3.88;70.36;100659.19;4423148;32;33262;-91
2024/01/24 05:38:05;;;;;;;;;;;;;;;3.88;70.74;100654.06;4418367;32;33969;-89
2024/01/24 05:40:35;;;;;;;;;;;;;;;3.88;71.09;100656.63;4420038;32;33664;-88
2024/01/24 05:43:04;;;;;;;;;;;;;;;4.10;69.98;100664.13;4449506;26;33994;-92
2024/01/24 05:45:37;;;;;;;;;;;;;;;4.06;70.11;100657.19;4427505;32;34011;-91
2024/01/24 05:48:10;;;;;;;;;;;;;;;4.29;69.26;100652.66;4429844;32;34836;-90
2024/01/24 05:50:43;;;;;;;;;;;;;;;4.31;68.86;100665.56;4421784;32;33882;-90
2024/01/24 05:53:14;;;;;;;;;;;;;;;4.46;68.02;100656.56;4419497;32;33719;-91
2024/01/24 05:55:42;;;;;;;;;;;;;;;4.39;68.30;100652.09;4412706;32;33973;-92
2024/01/24 05:58:14;;;;;;;;;;;;;;;4.25;68.78;100645.69;4424715;32;33826;-91
2024/01/24 06:00:43;;;;;;;;;;;;;;;4.33;68.67;100648.50;4430597;32;34841;-91
2024/01/24 06:03:18;;;;;;;;;;;;;;;4.44;67.91;100653.06;4432624;32;32304;-93
2024/01/24 06:05:46;;;;;;;;;;;;;;;4.47;67.60;100653.19;4432714;32;32367;-91
2024/01/24 06:08:19;;;;;;;;;;;;;;;4.39;67.95;100649.50;4430145;32;34356;-92
2024/01/24 06:10:48;;;;;;;;;;;;;;;4.55;66.78;100652.53;4430634;32;34592;-91
2024/01/24 06:13:18;;;;;;;;;;;;;;;4.32;67.99;100649.31;4424216;32;34038;-92
2024/01/24 06:15:48;;;;;;;;;;;;;;;4.34;67.96;100650.22;4428355;32;33178;-92
2024/01/24 06:18:22;;;;;;;;;;;;;;;4.47;67.24;100639.47;4427031;32;33871;-91
2024/01/24 06:20:51;;;;;;;;;;;;;;;4.44;67.33;100647.94;4424727;32;33835;-91
2024/01/24 06:23:21;;;;;;;;;;;;;;;4.35;67.79;100641.69;4413196;32;33412;-91
2024/01/24 06:25:50;;;;;;;;;;;;;;;4.33;67.87;100640.78;4429566;32;32729;-91
2024/01/24 06:28:25;;;;;;;;;;;;;;;4.53;66.99;100642.19;4429375;32;34435;-90
2024/01/24 06:30:54;;;;;;;;;;;;;;;4.50;67.16;100631.84;4432916;32;33997;-92
2024/01/24 06:33:28;;;;;;;;;;;;;;;4.38;67.72;100624.66;4437406;32;33461;-91
2024/01/24 06:35:58;;;;;;;;;;;;;;;4.50;67.13;100611.28;4430218;32;33989;-90
2024/01/24 06:38:26;;;;;;;;;;;;;;;4.66;66.47;100584.25;4432033;32;33968;-89
2024/01/24 06:40:55;;;;;;;;;;;;;;;4.65;66.36;100577.38;4426161;32;33909;-89
2024/01/24 06:43:30;;;;;;;;;;;;;;;4.46;67.16;100589.75;4421690;32;33635;-89
2024/01/24 06:45:59;;;;;;;;;;;;;;;4.48;66.93;100582.97;4416715;32;33004;-90
2024/01/24 06:48:37;;;;;;;;;;;;;;;4.56;66.93;100572.00;4415739;32;34967;-91
2024/01/24 06:51:07;;;;;;;;;;;;;;;4.65;66.33;100560.25;4412877;32;33601;-90
2024/01/24 06:53:42;;;;;;;;;;;;;;;4.55;66.87;100562.59;4416890;32;33930;-90
2024/01/24 06:56:11;;;;;;;;;;;;;;;4.68;66.14;100569.75;4417066;32;32971;-91
2024/01/24 06:58:40;;;;;;;;;;;;;;;4.77;65.84;100559.69;4418061;32;33943;-90
2024/01/24 07:01:13;;;;;;;;;;;;;;;4.59;66.53;100549.84;4417453;32;34364;-91
2024/01/24 07:03:45;;;;;;;;;;;;;;;4.69;66.34;100562.09;4414651;32;33692;-91
2024/01/24 07:06:15;;;;;;;;;;;;;;;4.77;66.27;100549.41;4417379;32;32949;-91
2024/01/24 07:08:45;;;;;;;;;;;;;;;4.69;66.51;100538.94;4422335;32;33849;-90
2024/01/24 07:11:15;;;;;;;;;;;;;;;4.84;66.05;100550.44;4418525;32;34136;-91
2024/01/24 07:13:47;;;;;;;;;;;;;;;4.57;66.89;100535.22;4401966;32;34231;-90
2024/01/24 07:18:51;;;;;;;;;;;;;;;4.79;66.21;100532.34;4419361;32;33679;-91
2024/01/24 07:21:22;;;;;;;;;;;;;;;4.64;66.85;100530.28;4422172;32;35447;-89
2024/01/24 07:23:52;;;;;;;;;;;;;;;4.80;66.68;100533.19;4416881;32;33648;-92
2024/01/24 07:26:23;;;;;;;;;;;;;;;4.82;66.34;100537.53;4416536;32;33298;-91
2024/01/24 07:28:52;;;;;;;;;;;;;;;4.82;66.50;100537.53;4415961;32;33407;-90
2024/01/24 07:31:23;;;;;;;;;;;;;;;4.82;66.71;100539.25;4422354;32;34042;-90
2024/01/24 07:33:53;;;;;;;;;;;;;;;4.96;65.97;100531.87;4417159;32;33136;-90
2024/01/24 07:36:22;;;;;;;;;;;;;;;4.85;66.78;100531.59;4417323;32;33367;-91
2024/01/24 07:38:55;;;;;;;;;;;;;;;4.90;66.51;100523.19;4415636;32;34532;-92
2024/01/24 07:41:27;;;;;;;;;;;;;;;4.95;66.32;100512.09;4414051;32;33952;-90
2024/01/24 07:43:57;;;;;;;;;;;;;;;4.97;66.35;100519.03;4414001;32;33639;-91
2024/01/24 07:46:29;;;;;;;;;;;;;;;5.05;66.43;100520.09;4415134;32;33837;-87
2024/01/24 07:48:59;;;;;;;;;;;;;;;5.01;66.32;100523.41;4418490;32;32403;-89
2024/01/24 07:51:30;;;;;;;;;;;;;;;5.30;65.54;100515.47;4415093;32;33224;-86
2024/01/24 07:53:59;;;;;;;;;;;;;;;5.11;66.34;100522.78;4416514;32;33843;-88
2024/01/24 07:56:28;;;;;;;;;;;;;;;5.31;65.45;100510.34;4406645;32;33061;-88
2024/01/24 07:58:57;;;;;;;;;;;;;;;5.19;65.81;100504.94;4402770;32;34588;-87
2024/01/24 08:04:04;;;;;;;;;;;;;;;5.33;65.22;100505.25;4411354;32;34515;-87
2024/01/24 08:06:35;;;;;;;;;;;;;;;5.23;65.72;100501.59;4420102;32;32007;-86
2024/01/24 08:09:05;;;;;;;;;;;;;;;5.39;64.93;100497.66;4416883;32;34449;-88
2024/01/24 08:11:45;;;;;;;;;;;;;;;5.45;64.76;100504.63;4410986;32;33899;-87
2024/01/24 08:14:14;;;;;;;;;;;;;;;5.52;64.31;100501.34;4413125;32;34960;-88
2024/01/24 08:16:59;;;;;;;;;;;;;;;5.39;64.78;100507.94;4415524;32;32641;-88
2024/01/24 08:19:30;;;;;;;;;;;;;;;5.32;65.13;100527.53;4419449;32;34836;-88
2024/01/24 08:22:01;;;;;;;;;;;;;;;5.34;65.18;100515.56;4417342;32;33234;-88
2024/01/24 08:24:31;;;;;;;;;;;;;;;5.29;65.37;100506.88;4414489;32;33769;-88
2024/01/24 08:27:00;;;;;;;;;;;;;;;5.30;65.19;100507.75;4413206;32;33316;-89
2024/01/24 08:29:29;;;;;;;;;;;;;;;5.28;65.54;100499.13;4408086;32;34146;-89
2024/01/24 08:32:11;;;;;;;;;;;;;;;5.41;65.26;100483.09;4419632;32;34441;-88
2024/01/24 08:34:45;;;;;;;;;;;;;;;5.31;65.90;100496.62;4415189;32;33728;-88
2024/01/24 08:37:14;;;;;;;;;;;;;;;4.88;67.89;100486.28;4416196;32;33422;-89
2024/01/24 08:39:43;;;;;;;;;;;;;;;5.21;67.21;100489.53;4417404;32;34781;-89
2024/01/24 08:42:13;;;;;;;;;;;;;;;5.22;66.88;100494.72;4415447;32;33996;-87
2024/01/24 08:44:44;;;;;;;;;;;;;;;5.18;67.39;100489.47;4421195;32;33578;-87
2024/01/24 08:47:14;;;;;;;;;;;;;;;5.39;67.18;100478.75;4415272;32;33663;-87
2024/01/24 08:49:56;;;;;;;;;;;;;;;5.22;67.56;100480.97;4419103;32;34704;-87
2024/01/24 08:52:26;;;;;;;;;;;;;;;5.11;68.48;100479.06;4415722;32;34897;-87
2024/01/24 08:55:07;;;;;;;;;;;;;;;5.30;68.31;100476.88;4414144;32;33544;-87
2024/01/24 08:57:36;;;;;;;;;;;;;;;5.21;68.91;100462.09;4420545;32;32887;-87
2024/01/24 09:00:07;;;;;;;;;;;;;;;5.38;68.96;100452.16;4418423;32;34732;-87
2024/01/24 09:02:44;;;;;;;;;;;;;;;5.40;68.92;100445.34;4415816;32;34519;-86
2024/01/24 09:05:20;;;;;;;;;;;;;;;5.25;69.23;100452.75;4411880;32;34968;-87
2024/01/24 09:07:49;;;;;;;;;;;;;;;5.27;69.51;100440.81;4420713;32;33659;-87
2024/01/24 09:10:20;;;;;;;;;;;;;;;5.02;70.70;100441.97;4414826;32;34501;-88
2024/01/24 09:12:50;;;;;;;;;;;;;;;5.16;69.94;100432.84;4401511;32;33591;-87
2024/01/24 09:15:22;;;;;;;;;;;;;;;5.19;70.00;100435.47;4413464;32;34072;-87
2024/01/24 09:17:53;;;;;;;;;;;;;;;5.22;70.14;100411.53;4414383;32;33042;-86
2024/01/24 09:20:26;;;;;;;;;;;;;;;5.09;70.59;100419.00;4418186;32;34782;-85
2024/01/24 09:22:55;;;;;;;;;;;;;;;5.23;70.32;100423.56;4413808;32;33657;-85
2024/01/24 09:25:33;;;;;;;;;;;;;;;4.99;71.66;100429.94;4412095;32;33572;-87
2024/01/24 09:28:08;;;;;;;;;;;;;;;5.18;70.94;100425.19;4415551;32;33875;-86
2024/01/24 09:30:39;;;;;;;;;;;;;;;5.17;71.13;100411.47;4414778;32;33732;-87
2024/01/24 09:33:12;;;;;;;;;;;;;;;5.34;70.39;100404.06;4419935;32;34074;-87
2024/01/24 09:38:17;;;;;;;;;;;;;;;5.08;71.44;100386.41;4415754;32;32415;-87
2024/01/24 09:40:49;;;;;;;;;;;;;;;5.26;70.76;100383.31;4418721;32;33885;-88
2024/01/24 09:43:19;;;;;;;;;;;;;;;5.17;70.83;100396.03;4414586;32;33907;-87
2024/01/24 09:45:50;;;;;;;;;;;;;;;5.08;70.99;100399.28;4419001;32;34584;-87
2024/01/24 09:48:20;;;;;;;;;;;;;;;5.17;70.87;100390.00;4409953;32;32721;-87
2024/01/24 09:50:51;;;;;;;;;;;;;;;5.26;70.09;100377.31;4416852;32;33850;-86
2024/01/24 09:53:20;;;;;;;;;;;;;;;5.17;70.29;100367.72;4412655;32;34889;-86
2024/01/24 09:55:51;;;;;;;;;;;;;;;5.18;70.09;100363.44;4419994;32;34164;-87
2024/01/24 09:58:21;;;;;;;;;;;;;;;5.38;69.52;100353.53;4414294;32;32582;-86
2024/01/24 10:01:01;;;;;;;;;;;;;;;5.05;71.21;100346.88;4416690;32;33590;-86
2024/01/24 10:03:31;;;;;;;;;;;;;;;5.34;70.32;100335.47;4414453;32;34006;-86
2024/01/24 10:06:06;;;;;;;;;;;;;;;5.14;70.92;100314.50;4412788;32;33933;-86
2024/01/24 10:08:39;;;;;;;;;;;;;;;5.24;70.52;100300.12;4419792;32;33361;-85
2024/01/24 10:11:07;;;;;;;;;;;;;;;5.34;70.04;100304.59;4415338;32;33725;-85
2024/01/24 10:13:40;;;;;;;;;;;;;;;5.30;70.03;100294.22;4414165;32;33668;-85
2024/01/24 10:16:29;;;;;;;;;;;;;;;5.43;69.26;100306.44;4414281;32;34847;-85
2024/01/24 10:19:01;;;;;;;;;;;;;;;5.25;69.56;100290.69;4418934;32;32596;-85
2024/01/24 10:21:32;;;;;;;;;;;;;;;5.31;69.60;100272.78;4422776;32;34429;-86
2024/01/24 10:24:06;;;;;;;;;;;;;;;5.48;69.09;100267.94;4483031;26;33961;-86
2024/01/24 10:26:35;;;;;;;;;;;;;;;5.27;69.34;100242.72;4410070;32;34736;-86
2024/01/24 10:29:10;;;;;;;;;;;;;;;5.61;68.28;100256.16;4407041;32;33810;-86
2024/01/24 10:31:39;;;;;;;;;;;;;;;5.79;67.02;100251.25;4421249;32;33835;-86
2024/01/24 10:34:14;;;;;;;;;;;;;;;5.71;67.15;100240.00;4416830;32;34069;-86
2024/01/24 10:36:46;;;;;;;;;;;;;;;5.83;66.87;100241.91;4408416;32;33875;-86
2024/01/24 10:39:16;;;;;;;;;;;;;;;5.59;67.25;100239.81;4506498;26;32758;-88
2024/01/24 10:41:46;;;;;;;;;;;;;;;5.87;65.99;100231.66;4401465;32;34404;-88
2024/01/24 10:44:16;;;;;;;;;;;;;;;5.93;66.37;100226.59;4415635;32;34252;-86
2024/01/24 10:46:46;;;;;;;;;;;;;;;5.85;66.30;100224.75;4415441;32;33530;-86
2024/01/24 10:49:15;;;;;;;;;;;;;;;5.96;66.04;100236.09;4411376;32;33610;-86
2024/01/24 10:51:47;;;;;;;;;;;;;;;5.79;66.22;100220.37;4415056;32;33947;-86
2024/01/24 10:54:17;;;;;;;;;;;;;;;5.54;67.16;100227.72;4416919;32;33537;-86
2024/01/24 10:56:49;;;;;;;;;;;;;;;5.84;66.23;100226.44;4405714;32;34562;-86
2024/01/24 10:59:19;;;;;;;;;;;;;;;5.72;65.81;100210.81;4407895;32;32661;-86
2024/01/24 11:01:50;;;;;;;;;;;;;;;5.73;66.21;100192.84;4401210;32;33582;-85
2024/01/24 11:04:20;;;;;;;;;;;;;;;6.03;64.85;100176.09;4405171;32;33931;-86
2024/01/24 11:07:00;;;;;;;;;;;;;;;6.16;64.50;100172.84;4415076;32;34665;-86
2024/01/24 11:09:31;;;;;;;;;;;;;;;5.93;65.51;100164.78;4417024;32;32460;-85
2024/01/24 11:12:01;;;;;;;;;;;;;;;6.04;64.60;100148.63;4416490;32;35050;-85
2024/01/24 11:14:33;;;;;;;;;;;;;;;5.98;64.95;100142.56;4416404;32;33378;-85
2024/01/24 11:17:08;;;;;;;;;;;;;;;6.04;65.06;100125.44;4419339;32;33796;-85
2024/01/24 11:19:37;;;;;;;;;;;;;;;6.04;64.75;100120.31;4415757;32;32801;-85
2024/01/24 11:22:11;;;;;;;;;;;;;;;6.16;64.37;100123.03;4416878;32;34241;-85
2024/01/24 11:24:54;;;;;;;;;;;;;;;6.12;64.63;100116.13;4415134;32;34120;-85
2024/01/24 11:27:27;;;;;;;;;;;;;;;6.08;64.76;100117.78;4417725;32;34390;-85
2024/01/24 11:30:01;;;;;;;;;;;;;;;6.19;64.06;100118.78;4417891;32;33898;-85
2024/01/24 11:32:37;;;;;;;;;;;;;;;6.35;63.58;100104.34;4413460;32;33954;-85
2024/01/24 11:35:23;;;;;;;;;;;;;;;6.28;63.61;100084.53;4403801;32;33696;-85
2024/01/24 11:38:00;;;;;;;;;;;;;;;6.43;63.32;100062.31;4399349;32;34419;-85
2024/01/24 11:40:34;;;;;;;;;;;;;;;6.16;64.24;100041.47;4414035;32;32478;-85
2024/01/24 11:43:25;;;;;;;;;;;;;;;6.27;64.20;100031.25;4414628;32;34545;-84
2024/01/24 11:45:54;;;;;;;;;;;;;;;6.50;63.51;100034.06;4418792;32;33877;-84
2024/01/24 11:48:27;;;;;;;;;;;;;;;6.62;62.94;100038.47;4418685;32;34164;-84
2024/01/24 11:50:57;;;;;;;;;;;;;;;6.79;62.14;100036.87;4415678;32;33377;-84
2024/01/24 11:53:29;;;;;;;;;;;;;;;6.78;61.44;100048.03;4416027;32;34510;-84
2024/01/24 11:56:00;;;;;;;;;;;;;;;6.60;62.12;100056.50;4414903;32;34668;-84
2024/01/24 11:58:29;;;;;;;;;;;;;;;6.45;62.81;100055.47;4419038;32;34688;-84
2024/01/24 12:00:59;;;;;;;;;;;;;;;6.67;62.41;100077.16;4417694;32;33435;-84
2024/01/24 12:03:29;;;;;;;;;;;;;;;6.85;61.33;100069.56;4416261;32;34691;-84
2024/01/24 12:05:58;;;;;;;;;;;;;;;6.95;60.50;100062.78;4415464;32;34076;-84
2024/01/24 12:08:35;;;;;;;;;;;;;;;6.71;61.20;100051.41;4420718;32;34156;-84
2024/01/24 12:11:05;;;;;;;;;;;;;;;6.49;62.30;100058.09;4420626;32;32827;-84
2024/01/24 12:13:42;;;;;;;;;;;;;;;6.53;62.27;100066.72;4414261;32;34668;-84
2024/01/24 12:16:15;;;;;;;;;;;;;;;6.68;62.01;100053.13;4415377;32;34707;-84
2024/01/24 12:18:45;;;;;;;;;;;;;;;6.92;61.38;100040.41;4420456;32;33402;-84
2024/01/24 12:21:18;;;;;;;;;;;;;;;6.82;62.11;100051.50;4414582;32;33073;-84
2024/01/24 12:23:50;;;;;;;;;;;;;;;6.56;63.23;100065.03;4417922;32;34045;-84
2024/01/24 12:26:26;;;;;;;;;;;;;;;6.75;63.04;100054.91;4415526;32;34271;-83
2024/01/24 12:28:56;;;;;;;;;;;;;;;6.70;63.69;100049.69;4417457;32;34505;-84
2024/01/24 12:31:28;;;;;;;;;;;;;;;6.70;63.90;100047.13;4415280;32;33027;-84
2024/01/24 12:33:59;;;;;;;;;;;;;;;6.93;63.40;100038.69;4421303;32;34505;-84
2024/01/24 12:36:33;;;;;;;;;;;;;;;6.89;63.78;100061.03;4410910;32;34093;-83
2024/01/24 12:39:04;;;;;;;;;;;;;;;7.02;63.32;100059.38;4414836;32;33655;-84
2024/01/24 12:41:34;;;;;;;;;;;;;;;7.12;62.83;100053.44;4414451;32;33926;-83
2024/01/24 12:44:03;;;;;;;;;;;;;;;6.95;63.57;100036.97;4409219;32;33549;-84
2024/01/24 12:46:33;;;;;;;;;;;;;;;6.96;63.86;100018.06;4408323;32;33674;-83
2024/01/24 12:49:03;;;;;;;;;;;;;;;7.00;63.83;100023.25;4412603;32;33828;-84
2024/01/24 12:51:37;;;;;;;;;;;;;;;7.08;63.79;100022.44;4413152;32;32779;-84
2024/01/24 12:54:13;;;;;;;;;;;;;;;7.12;63.76;100014.72;4412357;32;33614;-84
2024/01/24 12:56:45;;;;;;;;;;;;;;;7.09;63.85;100006.97;4416664;32;33898;-84
2024/01/24 12:59:15;;;;;;;;;;;;;;;7.14;63.68;100010.44;4419552;32;34042;-83
2024/01/24 13:01:44;;;;;;;;;;;;;;;6.79;64.51;99999.88;4415332;32;32901;-84
2024/01/24 13:04:14;;;;;;;;;;;;;;;6.98;64.15;99995.72;4414215;32;34641;-84
2024/01/24 13:06:44;;;;;;;;;;;;;;;7.04;63.97;99993.19;4413983;32;34166;-83
2024/01/24 13:09:21;;;;;;;;;;;;;;;6.94;64.37;99994.84;4420711;32;33661;-84
2024/01/24 13:11:50;;;;;;;;;;;;;;;7.06;64.01;100006.97;4418156;32;34243;-85
2024/01/24 13:14:20;;;;;;;;;;;;;;;7.12;63.79;100012.16;4414875;32;34035;-84
2024/01/24 13:16:49;;;;;;;;;;;;;;;7.21;63.60;100025.12;4414841;32;34813;-85
2024/01/24 13:19:24;;;;;;;;;;;;;;;7.35;64.12;100039.81;4409965;32;33153;-84
2024/01/24 13:21:54;;;;;;;;;;;;;;;7.14;64.38;100041.41;4420068;32;33811;-84
2024/01/24 13:24:25;;;;;;;;;;;;;;;6.93;64.99;100034.38;4402261;32;35058;-84